Flight Track Log - Related Links

Times and Time Zones

All times are in EDT time to prevent confusion due to time zone crossing. See the KAP29 flight status page for this flight to view local times or setup timezone preferences in your user account.

Time Position Orientation Groundspeed Altitude Reporting Facility
EDT Latitude Longitude Course Direction KTS MPH feet Rate Location/Type
Sun 09:39:19 AM 42.3667 -71.0167 216° Southwest 106 122 400  Level KA90
Sun 09:40:01 AM 42.3500 -71.0333 216° Southwest 112 129 1,000 941 Climbing KA90
Sun 09:41:01 AM 42.3500 -71.0833 270° West 124 143 2,000 1,000 Climbing KA90
Sun 09:42:01 AM 42.3500 -71.1167 270° West 116 133 3,000 900 Climbing KA90
Sun 09:43:01 AM 42.3667 -71.1500 304° West 127 146 3,800 800 Climbing KA90
Sun 09:44:01 AM 42.4000 -71.1667 340° North 125 144 4,600 750 Climbing KA90
Sun 09:45:01 AM 42.4333 -71.1833 340° North 136 157 5,300 700 Climbing KA90
Sun 09:46:01 AM 42.4833 -71.2000 346° North 139 160 6,000 400 Climbing KA90
Sun 09:47:01 AM 42.5167 -71.2167 340° North 160 184 6,100 50 Climbing KA90
Sun 09:48:01 AM 42.5667 -71.2333 346° North 156 180 6,100  Level KA90
Sun 09:48:55 AM 42.6000 -71.2500 340° North 153 176 6,100 53 Level KA90
Sun 09:49:55 AM 42.6333 -71.2667 340° North 148 170 6,200 190 Climbing KA90
Sun 09:51:01 AM 42.6667 -71.2833 340° North 138 159 6,500 286 Climbing KA90
Sun 09:52:01 AM 42.7167 -71.3000 346° North 136 157 6,800 300 Climbing KA90
Sun 09:53:01 AM 42.7500 -71.3167 340° North 131 151 7,100 350 Climbing KA90
Sun 09:54:01 AM 42.7833 -71.3333 340° North 132 152 7,500 300 Climbing KA90
Sun 09:55:01 AM 42.8167 -71.3500 340° North 136 157 7,700 300 Climbing KA90
Sun 09:56:01 AM 42.8500 -71.3667 340° North 133 153 8,100 200 Climbing KA90
Sun 09:57:01 AM 42.8833 -71.4000 324° Northwest 141 162 8,100  Level KA90
Sun 09:58:07 AM 42.9167 -71.4333 324° Northwest 144 166 8,100  Level KA90
Sun 09:59:07 AM 42.9333 -71.4833 294° West 145 167 8,100  Level KA90
Sun 10:00:01 AM 42.9667 -71.5167 324° Northwest 143 165 8,100  Level KA90
Sun 10:01:02 AM 42.9833 -71.5500 304° West 146 168 8,100  Level KA90
Sun 10:02:01 AM 43.0167 -71.6000 312° West 143 165 8,100  Level KA90
Sun 10:03:01 AM 43.0500 -71.6333 324° Northwest 144 166 8,100  Level KA90
Sun 10:04:02 AM 43.0667 -71.6667 304° West 147 169 8,100  Level KA90
Sun 10:04:47 AM 43.0900 -71.7094 307° West 151 174 8,100  Level Boston Center
Sun 10:05:47 AM 43.1153 -71.7461 313° West 157 181 8,100  Level Boston Center
Sun 10:06:47 AM 43.1447 -71.7856 316° Northwest 149 171 8,100  Level Boston Center
Sun 10:07:47 AM 43.1697 -71.8222 313° West 144 166 8,100  Level Boston Center
Sun 10:08:47 AM 43.1972 -71.8647 312° West 144 166 8,100  Level Boston Center
Sun 10:09:47 AM 43.2222 -71.9017 313° West 135 155 8,100  Level Boston Center
Sun 10:10:47 AM 43.2539 -71.9442 316° Northwest 140 161 8,100  Level Boston Center
Sun 10:11:47 AM 43.2789 -71.9808 313° West 140 161 8,100  Level Boston Center
Sun 10:12:47 AM 43.3061 -72.0236 311° West 140 161 8,100  Level Boston Center
Sun 10:13:59 AM 43.3314 -72.0575 316° Northwest 140 161 8,100  Level Boston Center
Sun 10:14:59 AM 43.3669 -72.1089 314° West 140 161 8,100  Level Boston Center
Sun 10:15:59 AM 43.3900 -72.1458 311° West 140 161 8,100  Level Boston Center
Sun 10:16:59 AM 43.4214 -72.1886 315° West 140 161 8,100  Level Boston Center
Sun 10:18:11 AM 43.4486 -72.2314 311° West 140 161 8,100  Level Boston Center
Sun 10:19:11 AM 43.4797 -72.2742 315° West 140 161 8,100  Level Boston Center
Sun 10:20:11 AM 43.5050 -72.3142 311° West 140 161 8,100  Level Boston Center
Sun 10:21:11 AM 43.5319 -72.3569 311° West 140 161 8,100  Level Boston Center
Sun 10:22:11 AM 43.5592 -72.3942 315° West 140 161 8,100  Level Boston Center
Sun 10:23:11 AM 43.5861 -72.4372 311° West 140 161 8,100 50 Level Boston Center
Sun 10:24:11 AM 43.6153 -72.4803 313° West 145 167 8,200 200 Climbing Boston Center
Sun 10:25:11 AM 43.6403 -72.5175 313° West 145 167 8,500 300 Climbing Boston Center
Sun 10:26:11 AM 43.6653 -72.5519 315° West 139 160 8,800 300 Climbing Boston Center
Sun 10:27:11 AM 43.6861 -72.5864 310° West 128 147 9,100 350 Climbing Boston Center
Sun 10:28:11 AM 43.7069 -72.6153 315° West 116 133 9,500 450 Climbing Boston Center
Sun 10:29:11 AM 43.7236 -72.6442 309° West 110 127 10,000 250 Climbing Boston Center
Sun 10:30:11 AM 43.7464 -72.6786 312° West 110 127 10,000  Level Boston Center
Sun 10:31:11 AM 43.7714 -72.7189 311° West 121 139 10,000  Level Boston Center
Sun 10:32:11 AM 43.7983 -72.7564 315° West 140 161 10,000  Level Boston Center
Sun 10:33:11 AM 43.8253 -72.7997 311° West 135 155 10,000  Level Boston Center
Sun 10:34:11 AM 43.8544 -72.8403 315° West 140 161 10,000  Level Boston Center
Sun 10:35:11 AM 43.8792 -72.8778 312° West 140 161 10,000  Level Boston Center
Sun 10:36:11 AM 43.9061 -72.9183 313° West 140 161 10,000  Level Boston Center
Sun 10:37:11 AM 43.9331 -72.9619 311° West 145 167 10,000  Level Boston Center
Sun 10:38:23 AM 43.9600 -73.0025 313° West 145 167 10,000  Level Boston Center
Sun 10:39:23 AM 43.9950 -73.0547 313° West 145 167 10,000  Level Boston Center
Sun 10:40:23 AM 44.0239 -73.0983 313° West 145 167 10,000  Level Boston Center
Sun 10:41:23 AM 44.0508 -73.1392 313° West 150 173 10,000  Level Boston Center
Sun 10:42:23 AM 44.0797 -73.1828 313° West 150 173 10,000  Level Boston Center
Sun 10:43:23 AM 44.1086 -73.2236 315° West 150 173 10,000  Level Boston Center
Sun 10:44:23 AM 44.1356 -73.2644 313° West 150 173 10,000  Level Boston Center
Sun 10:45:23 AM 44.1622 -73.3083 310° West 150 173 10,000  Level Boston Center
Sun 10:46:23 AM 44.1911 -73.3492 315° West 150 173 10,000  Level Boston Center
Sun 10:47:23 AM 44.2178 -73.3931 310° West 150 173 10,000  Level Boston Center
Sun 10:48:23 AM 44.2467 -73.4342 314° West 145 167 10,000  Level Boston Center
Sun 10:49:23 AM 44.2733 -73.4781 310° West 145 167 10,000 -200 Level Boston Center
Sun 10:50:23 AM 44.3019 -73.5250 310° West 166 191 9,600 -450 Descending Boston Center
Sun 10:51:23 AM 44.3308 -73.5661 314° West 166 191 9,100 -450 Descending Boston Center
Sun 10:52:23 AM 44.3594 -73.6103 312° West 166 191 8,700 -600 Descending Boston Center
Sun 10:53:23 AM 44.3925 -73.6575 314° West 161 185 7,900 -600 Descending Boston Center
Sun 10:54:23 AM 44.4211 -73.7044 310° West 161 185 7,500 -200 Descending Boston Center
Sun 10:55:23 AM 44.4497 -73.7458 314° West 161 185 7,500  Level Boston Center
Sun 10:56:23 AM 44.4744 -73.7842 312° West 145 167 7,500  Level Boston Center
Sun 10:57:23 AM 44.4989 -73.8256 310° West 139 160 7,500  Level Boston Center
Sun 10:58:23 AM 44.5233 -73.8639 312° West 134 154 7,500  Level Boston Center
Sun 10:59:23 AM 44.5436 -73.9108 301° West 134 154 7,500 -500 Level Boston Center
Sun 11:00:23 AM 44.5575 -73.9697 288° West 145 167 6,500 -773 Descending Boston Center
Sun 11:01:35 AM 44.5544 -74.0364 266° West 158 182 5,800 -682 Descending Boston Center
Sun 11:02:35 AM 44.5183 -74.0792 220° Southwest 161 185 5,000 -700 Descending Boston Center
Sun 11:03:35 AM 44.4825 -74.1131 214° Southwest 168 193 4,400 -600 Descending Boston Center

Login

Don't have an account? Register now (free) for customized features, flight alerts, and more!